createdAt,value
2023-05-04T00:00:50.729Z,78.4447
2023-05-04T00:01:52.296Z,77.9813
2023-05-04T00:02:53.560Z,78.4356
2023-05-04T00:03:55.139Z,78.6860
2023-05-04T00:04:56.686Z,78.3783
2023-05-04T00:05:57.730Z,78.3595
2023-05-04T00:06:59.309Z,78.2813
2023-05-04T00:08:00.385Z,78.3976
2023-05-04T00:09:01.944Z,78.1077
2023-05-04T00:10:04.129Z,78.4228
2023-05-04T00:11:05.268Z,78.5869
2023-05-04T00:12:06.861Z,79.0329
2023-05-04T00:13:08.597Z,79.4094
2023-05-04T00:14:10.774Z,79.9441
2023-05-04T00:15:11.851Z,80.1640
2023-05-04T00:16:12.940Z,79.5545
2023-05-04T00:17:14.422Z,79.7934
2023-05-04T00:18:15.993Z,79.2943
2023-05-04T00:19:18.859Z,79.0726
2023-05-04T00:20:19.469Z,78.6062
2023-05-04T00:21:21.138Z,78.6308
2023-05-04T00:22:22.461Z,78.5917
2023-05-04T00:23:23.751Z,78.3420
2023-05-04T00:24:25.236Z,78.2232
2023-05-04T00:25:26.550Z,78.0444
2023-05-04T00:26:29.276Z,78.6110
2023-05-04T00:27:30.347Z,78.4051
2023-05-04T00:28:32.410Z,78.0804
2023-05-04T00:29:34.560Z,77.9839
2023-05-04T00:30:36.091Z,78.1242
2023-05-04T00:31:38.688Z,78.2338
2023-05-04T00:32:39.855Z,78.0749
2023-05-04T00:33:42.025Z,78.0391
2023-05-04T00:34:42.182Z,78.1817
2023-05-04T00:35:42.823Z,78.2242
2023-05-04T00:36:45.591Z,77.8999
2023-05-04T00:37:46.661Z,77.9138
2023-05-04T00:38:49.023Z,78.3051
2023-05-04T00:39:51.664Z,78.3138
2023-05-04T00:40:52.814Z,78.6156
2023-05-04T00:41:55.262Z,78.6094
2023-05-04T00:42:57.878Z,78.3681
2023-05-04T00:43:58.935Z,78.6062
2023-05-04T00:44:59.989Z,79.2335
2023-05-04T00:46:01.136Z,78.7766
2023-05-04T00:47:03.273Z,78.9628
2023-05-04T00:48:04.401Z,78.5767
2023-05-04T00:49:04.991Z,78.4273
2023-05-04T00:50:07.719Z,78.6472
2023-05-04T00:51:08.492Z,78.6225
2023-05-04T00:52:10.768Z,78.7700
2023-05-04T00:53:11.342Z,78.5146
2023-05-04T00:54:13.977Z,78.4925
2023-05-04T00:55:15.958Z,78.5455
2023-05-04T00:56:17.900Z,78.3191
2023-05-04T00:57:18.207Z,78.2439
2023-05-04T00:58:20.944Z,78.3839
2023-05-04T00:59:23.479Z,78.3413
2023-05-04T01:00:26.721Z,78.5747
2023-05-04T01:01:27.385Z,78.3278
2023-05-04T01:02:28.898Z,78.2881
2023-05-04T01:03:29.942Z,78.3932
2023-05-04T01:04:32.440Z,78.2834
2023-05-04T01:05:35.103Z,78.4057
2023-05-04T01:06:35.109Z,78.5406
2023-05-04T01:07:35.277Z,78.4003
2023-05-04T01:08:37.005Z,78.4649
2023-05-04T01:09:37.375Z,78.5832
2023-05-04T01:10:40.148Z,78.6556
2023-05-04T01:11:40.191Z,78.7852
2023-05-04T01:12:40.870Z,78.4363
2023-05-04T01:13:42.891Z,78.7375
2023-05-04T01:14:43.584Z,78.5755
2023-05-04T01:15:46.928Z,78.7165
2023-05-04T01:16:47.449Z,79.2252
2023-05-04T01:17:49.939Z,78.7678
2023-05-04T01:18:50.597Z,79.1339
2023-05-04T01:19:53.264Z,78.8589
2023-05-04T01:20:53.339Z,78.8006
2023-05-04T01:21:55.165Z,78.9271
2023-05-04T01:22:56.135Z,79.1496
2023-05-04T01:23:58.589Z,78.8554
2023-05-04T01:25:00.278Z,78.8550
2023-05-04T01:26:00.885Z,79.0890
2023-05-04T01:27:01.443Z,79.2395
2023-05-04T01:28:02.976Z,79.6320
2023-05-04T01:29:04.426Z,80.4006
2023-05-04T01:30:05.860Z,80.5092
2023-05-04T01:31:05.240Z,80.5731
2023-05-04T01:32:05.810Z,80.4228
2023-05-04T01:33:06.474Z,81.0388
2023-05-04T01:34:07.009Z,80.5595
2023-05-04T01:35:07.399Z,80.8864
2023-05-04T01:36:08.722Z,80.9208
2023-05-04T01:37:11.532Z,81.0945
2023-05-04T01:38:12.612Z,80.7350
2023-05-04T01:39:14.575Z,80.0732
2023-05-04T01:40:16.309Z,79.6690
2023-05-04T01:41:17.326Z,79.8409
2023-05-04T01:42:18.440Z,79.3304
2023-05-04T01:43:20.079Z,79.6523
2023-05-04T01:44:20.252Z,79.6763
2023-05-04T01:45:20.865Z,79.3715
2023-05-04T01:46:23.723Z,79.3663
2023-05-04T01:47:25.976Z,79.6087
2023-05-04T01:48:28.928Z,79.6765
2023-05-04T01:49:28.446Z,79.8305
2023-05-04T01:50:30.507Z,80.2135
2023-05-04T01:51:32.081Z,80.0425
2023-05-04T01:52:33.748Z,79.8906
2023-05-04T01:53:35.030Z,79.8750
2023-05-04T01:54:35.998Z,79.8661
2023-05-04T01:55:36.545Z,79.8693
2023-05-04T01:56:37.199Z,79.7613
2023-05-04T01:57:39.622Z,79.9179
2023-05-04T01:58:41.552Z,79.9171
2023-05-04T01:59:42.653Z,79.7996
2023-05-04T02:00:44.856Z,79.8264
2023-05-04T02:01:47.743Z,79.8590
2023-05-04T02:02:50.869Z,79.9917
2023-05-04T02:03:53.483Z,80.0040
2023-05-04T02:04:54.495Z,80.1952
2023-05-04T02:05:55.121Z,80.1605
2023-05-04T02:06:55.620Z,80.1678
2023-05-04T02:07:57.112Z,80.1608
2023-05-04T02:08:57.918Z,80.0956
2023-05-04T02:09:59.641Z,80.2693
2023-05-04T02:11:00.174Z,80.1830
2023-05-04T02:12:01.914Z,80.1831
2023-05-04T02:13:02.550Z,80.4647
2023-05-04T02:14:03.126Z,80.3626
2023-05-04T02:15:03.695Z,80.4220
2023-05-04T02:16:04.242Z,80.6949
2023-05-04T02:17:05.230Z,80.3403
2023-05-04T02:18:06.034Z,80.4470
2023-05-04T02:19:06.567Z,80.3005
2023-05-04T02:20:08.891Z,80.2910
2023-05-04T02:21:09.878Z,80.7861
2023-05-04T02:22:10.491Z,80.7273
2023-05-04T02:23:11.556Z,81.2738
2023-05-04T02:24:13.217Z,81.2917
2023-05-04T02:25:13.795Z,81.8919
2023-05-04T02:26:15.036Z,81.5493
2023-05-04T02:27:16.287Z,81.4901
2023-05-04T02:28:16.865Z,81.8695
2023-05-04T02:29:17.408Z,81.7845
2023-05-04T02:30:18.033Z,82.0851
2023-05-04T02:31:18.581Z,82.0064
2023-05-04T02:32:19.067Z,81.6323
2023-05-04T02:33:19.702Z,81.6620
2023-05-04T02:34:21.319Z,81.5093
2023-05-04T02:35:23.047Z,81.6778
2023-05-04T02:36:23.642Z,81.6191
2023-05-04T02:37:24.618Z,82.0006
2023-05-04T02:38:25.171Z,81.4160
2023-05-04T02:39:26.182Z,81.5872
2023-05-04T02:40:26.683Z,81.9617
2023-05-04T02:41:27.691Z,81.6486
2023-05-04T02:42:28.274Z,82.3278
2023-05-04T02:43:28.833Z,82.4520
2023-05-04T02:44:29.357Z,82.5191
2023-05-04T02:45:29.983Z,82.1318
2023-05-04T02:46:30.515Z,82.9052
2023-05-04T02:47:31.786Z,83.4213
2023-05-04T02:48:32.851Z,83.6800
2023-05-04T02:49:33.404Z,83.3523
2023-05-04T02:50:33.963Z,82.9633
2023-05-04T02:51:35.031Z,82.9590
2023-05-04T02:52:35.568Z,83.4494
2023-05-04T02:53:36.703Z,83.2678
2023-05-04T02:54:37.251Z,82.8701
2023-05-04T02:55:37.805Z,82.8902
2023-05-04T02:56:39.049Z,82.9947
2023-05-04T02:57:40.108Z,82.9977
2023-05-04T02:58:41.141Z,83.2891
2023-05-04T02:59:42.667Z,83.1202
2023-05-04T03:00:44.223Z,82.6362
2023-05-04T03:01:45.457Z,83.0339
2023-05-04T03:02:46.616Z,82.3791
2023-05-04T03:03:47.997Z,82.9131
2023-05-04T03:04:48.515Z,83.1052
2023-05-04T03:05:49.590Z,83.2107
2023-05-04T03:06:51.048Z,83.1714
2023-05-04T03:07:52.031Z,82.2944
2023-05-04T03:08:54.212Z,82.0893
2023-05-04T03:09:54.741Z,81.7450
2023-05-04T03:10:55.830Z,81.7672
2023-05-04T03:11:56.853Z,82.2567
2023-05-04T03:12:58.001Z,83.1249
2023-05-04T03:13:59.064Z,82.4075
2023-05-04T03:15:00.156Z,82.2025
2023-05-04T03:16:01.668Z,82.2535
2023-05-04T03:17:02.638Z,82.0340
2023-05-04T03:18:05.677Z,81.8164
2023-05-04T03:19:07.200Z,82.0043
2023-05-04T03:20:09.014Z,81.9175
2023-05-04T03:21:10.050Z,81.9118
2023-05-04T03:22:11.286Z,81.8117
2023-05-04T03:23:11.838Z,82.0164
2023-05-04T03:24:13.659Z,82.3931
2023-05-04T03:25:14.725Z,82.0721
2023-05-04T03:26:16.235Z,82.3181
2023-05-04T03:27:17.708Z,82.4707
2023-05-04T03:28:19.217Z,82.6257
2023-05-04T03:29:20.772Z,83.1147
2023-05-04T03:30:22.358Z,83.3455
2023-05-04T03:31:24.042Z,82.8376
2023-05-04T03:32:25.362Z,82.8155
2023-05-04T03:33:26.866Z,82.5885
2023-05-04T03:34:28.682Z,82.5227
2023-05-04T03:35:30.947Z,83.0249
2023-05-04T03:36:31.949Z,83.5197
2023-05-04T03:37:33.974Z,83.5367
2023-05-04T03:38:35.451Z,83.6577
2023-05-04T03:39:37.624Z,83.3619
2023-05-04T03:40:39.302Z,83.9163
2023-05-04T03:41:41.483Z,84.0359
2023-05-04T03:42:43.880Z,83.3133
2023-05-04T03:43:45.809Z,83.3658
2023-05-04T03:44:48.608Z,84.3151
2023-05-04T03:45:50.854Z,84.2895
2023-05-04T03:46:53.293Z,84.6635
2023-05-04T03:47:54.950Z,84.2214
2023-05-04T03:48:57.216Z,83.4578
2023-05-04T03:49:59.015Z,84.1924
2023-05-04T03:51:01.973Z,84.1259
2023-05-04T03:52:04.493Z,84.2997
2023-05-04T03:53:07.256Z,84.6007
2023-05-04T03:54:07.418Z,84.4370
2023-05-04T03:55:09.400Z,83.9612
2023-05-04T03:56:11.909Z,84.4473
2023-05-04T03:57:12.120Z,84.7834
2023-05-04T03:58:14.869Z,84.7257
2023-05-04T03:59:15.311Z,85.0431
2023-05-04T04:00:17.251Z,84.5660
2023-05-04T04:01:19.846Z,84.5132
2023-05-04T04:02:19.866Z,84.7331
2023-05-04T04:03:23.111Z,83.8337
2023-05-04T04:04:23.047Z,84.1673
2023-05-04T04:05:25.747Z,84.5708
2023-05-04T04:06:28.480Z,84.3395
2023-05-04T04:07:28.416Z,84.5430
2023-05-04T04:08:31.017Z,84.3606
2023-05-04T04:09:31.360Z,84.6467
2023-05-04T04:10:33.980Z,84.8592
2023-05-04T04:11:34.400Z,85.1314
2023-05-04T04:12:36.927Z,84.8405
2023-05-04T04:13:37.690Z,84.8030
2023-05-04T04:14:38.079Z,85.0630
2023-05-04T04:15:42.969Z,84.6559
2023-05-04T04:16:44.216Z,84.0544
2023-05-04T04:17:47.047Z,84.4044
2023-05-04T04:18:47.581Z,84.5935
2023-05-04T04:19:50.194Z,84.6081
2023-05-04T04:20:52.905Z,84.5572
2023-05-04T04:21:53.890Z,84.7472
2023-05-04T04:22:56.763Z,84.4572
2023-05-04T04:23:56.804Z,84.2967
2023-05-04T04:24:57.017Z,84.1059
2023-05-04T04:25:57.165Z,83.9636
2023-05-04T04:26:57.417Z,84.3234
2023-05-04T04:27:57.721Z,84.5613
2023-05-04T04:28:57.993Z,84.0685
2023-05-04T04:29:58.247Z,84.4516
2023-05-04T04:30:58.815Z,84.1152
2023-05-04T04:32:01.680Z,84.5027
2023-05-04T04:33:02.231Z,85.1006
2023-05-04T04:34:02.151Z,85.2880
2023-05-04T04:35:02.609Z,84.9414
2023-05-04T04:36:02.831Z,84.2833
2023-05-04T04:37:05.827Z,84.0319
2023-05-04T04:38:06.419Z,84.0700
2023-05-04T04:39:08.948Z,84.6555
2023-05-04T04:40:11.645Z,84.5072
2023-05-04T04:41:14.473Z,84.2327
2023-05-04T04:42:14.579Z,83.9815
2023-05-04T04:43:17.222Z,83.7597
2023-05-04T04:44:19.663Z,83.2934
2023-05-04T04:45:19.905Z,83.3588
2023-05-04T04:46:22.370Z,83.3310
2023-05-04T04:47:22.596Z,83.3472
2023-05-04T04:48:25.304Z,83.3584
2023-05-04T04:49:28.103Z,83.5354
2023-05-04T04:50:30.718Z,83.4667
2023-05-04T04:51:33.480Z,83.5069
2023-05-04T04:52:35.776Z,83.6094
2023-05-04T04:53:38.541Z,83.1464
2023-05-04T04:54:41.024Z,83.2618
2023-05-04T04:55:42.431Z,83.4623
2023-05-04T04:56:45.105Z,83.4788
2023-05-04T04:57:47.695Z,83.3290
2023-05-04T04:58:49.207Z,83.5565
2023-05-04T04:59:51.719Z,84.1854
2023-05-04T05:00:53.982Z,83.9765
2023-05-04T05:01:55.937Z,84.0569
2023-05-04T05:02:57.802Z,84.1664
2023-05-04T05:04:00.032Z,84.2689
2023-05-04T05:05:02.077Z,84.3474
2023-05-04T05:06:04.730Z,83.5875
2023-05-04T05:07:06.924Z,83.2074
2023-05-04T05:08:09.153Z,83.4121
2023-05-04T05:09:10.760Z,83.4920
2023-05-04T05:10:13.500Z,83.3176
2023-05-04T05:11:14.784Z,83.3513
2023-05-04T05:12:16.320Z,83.1378
2023-05-04T05:13:17.943Z,83.2528
2023-05-04T05:14:19.498Z,83.0880
2023-05-04T05:15:21.545Z,83.1901
2023-05-04T05:16:22.880Z,83.7188
2023-05-04T05:17:24.698Z,83.7159
2023-05-04T05:18:25.980Z,83.9641
2023-05-04T05:19:27.494Z,83.6236
2023-05-04T05:20:29.354Z,83.1467
2023-05-04T05:21:30.835Z,83.0985
2023-05-04T05:22:31.787Z,83.6749
2023-05-04T05:23:33.728Z,83.6756
2023-05-04T05:24:34.828Z,83.2545
2023-05-04T05:25:35.838Z,82.9546
2023-05-04T05:26:36.384Z,83.2418
2023-05-04T05:27:37.396Z,82.7620
2023-05-04T05:28:38.471Z,82.4205
2023-05-04T05:29:39.006Z,82.1258
2023-05-04T05:30:40.134Z,81.8788
2023-05-04T05:31:41.627Z,82.1495
2023-05-04T05:32:43.209Z,81.9350
2023-05-04T05:33:44.466Z,82.2052
2023-05-04T05:34:44.992Z,82.2683
2023-05-04T05:35:46.532Z,82.1195
2023-05-04T05:36:47.040Z,82.3150
2023-05-04T05:37:47.553Z,82.3788
2023-05-04T05:38:50.776Z,82.1218
2023-05-04T05:39:48.406Z,82.0562
2023-05-04T05:40:49.458Z,81.9738
2023-05-04T05:41:50.478Z,81.9875
2023-05-04T05:42:52.009Z,81.6949
2023-05-04T05:43:54.190Z,82.0902
2023-05-04T05:44:55.039Z,81.9210
2023-05-04T05:45:56.533Z,81.5268
2023-05-04T05:46:57.087Z,81.5978
2023-05-04T05:47:57.766Z,81.5383
2023-05-04T05:48:58.399Z,81.6768
2023-05-04T05:49:59.443Z,81.7040
2023-05-04T05:51:01.202Z,81.4224
2023-05-04T05:52:01.242Z,81.2641
2023-05-04T05:53:02.568Z,81.4143
2023-05-04T05:54:03.679Z,81.1131
2023-05-04T05:55:04.206Z,80.9017
2023-05-04T05:56:05.236Z,81.0155
2023-05-04T05:57:06.251Z,81.2767
2023-05-04T05:58:07.697Z,81.2850
2023-05-04T05:59:09.680Z,80.5825
2023-05-04T06:00:10.248Z,80.7246
2023-05-04T06:01:12.872Z,79.9103
2023-05-04T06:02:15.521Z,80.6992
2023-05-04T06:03:17.079Z,80.2243
2023-05-04T06:04:18.484Z,79.9194
2023-05-04T06:05:20.464Z,80.3124
2023-05-04T06:06:20.440Z,79.8828
2023-05-04T06:07:20.543Z,79.9902
2023-05-04T06:08:21.646Z,80.2634
2023-05-04T06:09:22.540Z,80.0120
2023-05-04T06:10:23.661Z,79.9461
2023-05-04T06:11:25.781Z,80.1122
2023-05-04T06:12:25.793Z,79.7570
2023-05-04T06:13:25.853Z,80.0292
2023-05-04T06:14:27.565Z,79.6170
2023-05-04T06:15:28.363Z,79.6399
2023-05-04T06:16:29.987Z,79.6786
2023-05-04T06:17:30.942Z,80.0178
2023-05-04T06:18:32.913Z,79.5303
2023-05-04T06:19:35.432Z,79.2067
2023-05-04T06:20:38.272Z,78.8741
2023-05-04T06:21:41.268Z,78.8789
2023-05-04T06:22:41.541Z,79.0518
2023-05-04T06:23:43.852Z,78.4209
2023-05-04T06:24:46.272Z,79.2288
2023-05-04T06:25:48.238Z,78.8348
2023-05-04T06:26:48.935Z,78.8595
2023-05-04T06:27:50.699Z,78.7683
2023-05-04T06:28:50.728Z,78.4181
2023-05-04T06:29:52.477Z,78.7165
2023-05-04T06:30:53.539Z,78.9242
2023-05-04T06:31:55.644Z,78.8286
2023-05-04T06:32:58.030Z,78.5572
2023-05-04T06:33:59.972Z,78.1774
2023-05-04T06:35:02.710Z,77.7408
2023-05-04T06:36:04.059Z,77.3175
2023-05-04T06:37:06.948Z,76.7137
2023-05-04T06:38:07.999Z,76.4289
2023-05-04T06:39:09.913Z,76.2442
2023-05-04T06:40:13.258Z,76.4195
2023-05-04T06:41:14.306Z,77.0887
2023-05-04T06:42:15.883Z,76.7166
2023-05-04T06:43:18.388Z,76.7378
2023-05-04T06:44:20.396Z,76.4316
2023-05-04T06:45:20.443Z,76.3880
2023-05-04T06:46:21.782Z,77.0215
2023-05-04T06:47:23.065Z,76.8414
2023-05-04T06:48:25.699Z,76.6269
2023-05-04T06:49:27.439Z,76.1766
2023-05-04T06:50:29.233Z,77.4040
2023-05-04T06:51:31.019Z,76.9322
2023-05-04T06:52:31.862Z,76.3296
2023-05-04T06:53:34.585Z,76.5247
2023-05-04T06:54:34.725Z,76.3085
2023-05-04T06:55:35.349Z,76.5633
2023-05-04T06:56:37.680Z,76.0001
2023-05-04T06:57:40.403Z,76.1113
2023-05-04T06:58:42.420Z,75.1017
2023-05-04T06:59:44.109Z,74.8428
2023-05-04T07:00:46.677Z,74.6244
2023-05-04T07:01:48.672Z,74.1756
2023-05-04T07:02:50.381Z,72.8937
2023-05-04T07:03:50.890Z,72.4168
2023-05-04T07:04:50.847Z,72.2992
2023-05-04T07:05:51.124Z,70.5091
2023-05-04T07:06:53.221Z,70.7120
2023-05-04T07:07:55.527Z,70.0778
2023-05-04T07:08:57.072Z,69.5317
2023-05-04T07:09:58.604Z,70.5991
2023-05-04T07:11:00.300Z,71.5396
2023-05-04T07:12:02.232Z,72.7042
2023-05-04T07:13:04.579Z,73.3543
2023-05-04T07:14:05.217Z,73.5602
2023-05-04T07:15:08.159Z,73.6056
2023-05-04T07:16:08.744Z,73.7681
2023-05-04T07:17:10.869Z,74.1203
2023-05-04T07:18:11.300Z,74.4557
2023-05-04T07:19:11.419Z,74.2237
2023-05-04T07:20:13.611Z,74.2805
2023-05-04T07:21:28.432Z,74.1735
2023-05-04T07:22:18.371Z,74.4184
2023-05-04T07:23:19.838Z,74.1220
2023-05-04T07:24:20.390Z,74.5418
2023-05-04T07:25:20.998Z,74.0640
2023-05-04T07:26:22.044Z,73.5959
2023-05-04T07:27:22.545Z,73.9733
2023-05-04T07:28:23.134Z,73.8754
2023-05-04T07:29:23.602Z,73.7807
2023-05-04T07:30:24.197Z,73.7643
2023-05-04T07:31:29.488Z,73.5174
2023-05-04T07:32:26.072Z,74.5891
2023-05-04T07:33:27.957Z,74.5259
2023-05-04T07:34:44.898Z,74.5875
2023-05-04T07:35:31.013Z,73.7808
2023-05-04T07:36:31.604Z,73.9757
2023-05-04T07:37:32.087Z,73.5841
2023-05-04T07:38:33.056Z,73.4699
2023-05-04T07:39:33.605Z,73.4216
2023-05-04T07:40:34.161Z,73.5169
2023-05-04T07:41:34.666Z,74.0093
2023-05-04T07:42:36.060Z,73.5527
2023-05-04T07:43:36.604Z,73.2489
2023-05-04T07:44:38.032Z,72.7224
2023-05-04T07:45:39.924Z,72.8898
2023-05-04T07:46:40.449Z,73.0454
2023-05-04T07:47:41.050Z,72.9538
2023-05-04T07:48:41.563Z,72.7401
2023-05-04T07:49:42.516Z,72.9764
2023-05-04T07:50:43.033Z,72.8183
2023-05-04T07:51:44.066Z,72.7603
2023-05-04T07:52:45.715Z,72.6988
2023-05-04T07:53:46.271Z,72.6674
2023-05-04T07:54:47.279Z,72.4549
2023-05-04T07:55:48.797Z,72.4620
2023-05-04T07:56:49.317Z,72.2530
2023-05-04T07:57:50.367Z,72.3231
2023-05-04T07:58:50.898Z,72.4453
2023-05-04T07:59:52.319Z,73.0488
2023-05-04T08:00:53.887Z,73.2151
2023-05-04T08:01:55.614Z,73.3156
2023-05-04T08:02:56.295Z,73.1617
2023-05-04T08:03:57.400Z,72.7164
2023-05-04T08:04:57.865Z,73.1503
2023-05-04T08:05:58.387Z,73.3300
2023-05-04T08:06:58.946Z,73.1198
2023-05-04T08:07:59.929Z,72.4079
2023-05-04T08:09:01.166Z,72.0072
2023-05-04T08:10:02.915Z,71.7775
2023-05-04T08:11:20.021Z,71.6158
2023-05-04T08:12:04.510Z,71.9619
2023-05-04T08:13:05.068Z,72.2527
2023-05-04T08:14:05.716Z,71.3929
2023-05-04T08:15:06.933Z,70.9460
2023-05-04T08:16:07.565Z,70.4955
2023-05-04T08:17:08.168Z,70.4186
2023-05-04T08:18:08.672Z,70.3426
2023-05-04T08:19:09.226Z,70.3825
2023-05-04T08:20:09.805Z,70.5253
2023-05-04T08:21:10.792Z,70.4546
2023-05-04T08:22:11.356Z,70.3736
2023-05-04T08:23:11.907Z,70.6560
2023-05-04T08:24:12.454Z,70.8495
2023-05-04T08:25:13.012Z,70.8907
2023-05-04T08:26:13.551Z,70.4806
2023-05-04T08:27:14.101Z,70.2007
2023-05-04T08:28:14.801Z,70.3675
2023-05-04T08:29:15.328Z,70.1548
2023-05-04T08:30:16.390Z,69.8748
2023-05-04T08:31:17.444Z,69.9971
2023-05-04T08:32:18.452Z,69.6939
2023-05-04T08:33:20.001Z,69.7397
2023-05-04T08:34:20.549Z,70.2560
2023-05-04T08:35:21.611Z,70.0172
2023-05-04T08:36:22.174Z,69.9157
2023-05-04T08:37:22.713Z,69.9966
2023-05-04T08:38:23.806Z,69.8548
2023-05-04T08:39:24.572Z,69.2534
2023-05-04T08:40:25.147Z,68.8939
2023-05-04T08:41:25.652Z,68.9670
2023-05-04T08:42:26.215Z,69.1730
2023-05-04T08:43:26.719Z,69.2576
2023-05-04T08:44:27.756Z,68.5148
2023-05-04T08:45:29.045Z,68.5621
2023-05-04T08:46:29.600Z,68.5714
2023-05-04T08:47:30.895Z,68.2779
2023-05-04T08:48:30.727Z,67.9193
2023-05-04T08:49:32.380Z,67.7884
2023-05-04T08:50:33.053Z,67.9207
2023-05-04T08:51:33.532Z,68.2970
2023-05-04T08:52:34.098Z,68.1220
2023-05-04T08:53:34.621Z,67.5253
2023-05-04T08:54:35.693Z,67.3196
2023-05-04T08:55:37.207Z,67.6041
2023-05-04T08:56:38.238Z,67.4069
2023-05-04T08:57:39.207Z,67.2543
2023-05-04T08:58:39.918Z,67.2485
2023-05-04T08:59:42.981Z,66.7812
2023-05-04T09:00:44.897Z,66.5888
2023-05-04T09:01:45.909Z,66.4271
2023-05-04T09:02:48.747Z,66.4286
2023-05-04T09:03:49.925Z,66.3050
2023-05-04T09:04:50.592Z,66.2670
2023-05-04T09:05:52.036Z,66.2760
2023-05-04T09:06:52.518Z,66.0542
2023-05-04T09:07:54.942Z,65.9226
2023-05-04T09:08:56.503Z,66.9754
2023-05-04T09:09:58.329Z,66.8549
2023-05-04T09:11:00.462Z,66.7856
2023-05-04T09:12:00.330Z,66.6198
2023-05-04T09:13:01.562Z,66.2301
2023-05-04T09:14:03.002Z,66.3188
2023-05-04T09:15:04.111Z,65.9080
2023-05-04T09:16:04.188Z,66.2539
2023-05-04T09:17:06.387Z,65.7523
2023-05-04T09:18:08.946Z,65.9017
2023-05-04T09:19:11.488Z,65.9799
2023-05-04T09:20:13.386Z,65.6514
2023-05-04T09:21:14.869Z,65.7397
2023-05-04T09:22:17.572Z,65.7234
2023-05-04T09:23:17.295Z,65.3692
2023-05-04T09:24:19.142Z,65.4337
2023-05-04T09:25:20.125Z,66.1025
2023-05-04T09:26:22.020Z,66.4920
2023-05-04T09:27:23.376Z,66.0863
2023-05-04T09:28:28.853Z,65.9029
2023-05-04T09:29:26.950Z,65.2845
2023-05-04T09:30:28.969Z,65.7648
2023-05-04T09:31:29.498Z,65.4617
2023-05-04T09:32:30.476Z,65.0209
2023-05-04T09:33:30.983Z,64.6283
2023-05-04T09:34:31.856Z,65.1096
2023-05-04T09:35:34.796Z,64.8322
2023-05-04T09:36:35.266Z,65.1030
2023-05-04T09:37:36.503Z,65.5406
2023-05-04T09:38:37.423Z,65.0427
2023-05-04T09:39:37.978Z,65.0246
2023-05-04T09:40:38.279Z,65.2187
2023-05-04T09:41:39.057Z,65.0700
2023-05-04T09:42:41.273Z,64.7660
2023-05-04T09:43:41.810Z,64.3833
2023-05-04T09:44:43.670Z,64.3164
2023-05-04T09:45:45.061Z,64.8958
2023-05-04T09:46:45.097Z,64.3756
2023-05-04T09:47:46.637Z,64.1756
2023-05-04T09:48:47.572Z,64.2033
2023-05-04T09:49:48.520Z,64.3493
2023-05-04T09:50:50.406Z,63.8832
2023-05-04T09:51:51.379Z,63.6831
2023-05-04T09:52:54.103Z,63.4298
2023-05-04T09:53:55.518Z,63.4693
2023-05-04T09:54:57.328Z,63.5122
2023-05-04T09:56:04.479Z,63.7301
2023-05-04T09:57:00.310Z,64.4537
2023-05-04T09:58:01.274Z,63.9297
2023-05-04T09:59:02.509Z,63.7931
2023-05-04T10:00:03.610Z,64.0758
2023-05-04T10:01:04.124Z,64.0404
2023-05-04T10:02:21.822Z,63.9726
2023-05-04T10:03:06.439Z,63.9083
2023-05-04T10:04:06.912Z,63.8032
2023-05-04T10:05:08.253Z,63.4430
2023-05-04T10:06:09.572Z,63.1058
2023-05-04T10:07:10.279Z,63.2253
2023-05-04T10:08:11.599Z,63.4163
2023-05-04T10:09:12.638Z,64.0446
2023-05-04T10:10:13.180Z,64.2343
2023-05-04T10:11:14.190Z,64.2415
2023-05-04T10:12:15.206Z,64.3480
2023-05-04T10:13:16.417Z,63.5286
2023-05-04T10:14:17.401Z,63.3050
2023-05-04T10:15:17.964Z,63.3320
2023-05-04T10:16:19.007Z,63.2587
2023-05-04T10:17:19.504Z,62.4854
2023-05-04T10:18:20.047Z,62.1883
2023-05-04T10:19:20.558Z,62.6196
2023-05-04T10:20:21.607Z,62.4729
2023-05-04T10:21:22.166Z,61.9535
2023-05-04T10:22:22.732Z,61.8004
2023-05-04T10:23:24.416Z,62.1007
2023-05-04T10:24:24.988Z,62.0584
2023-05-04T10:25:25.523Z,62.1232
2023-05-04T10:26:26.016Z,62.3194
2023-05-04T10:27:26.505Z,62.5442
2023-05-04T10:28:27.557Z,62.6864
2023-05-04T10:29:28.136Z,62.6253
2023-05-04T10:30:28.680Z,62.3614
2023-05-04T10:31:29.303Z,62.5677
2023-05-04T10:32:29.884Z,62.4481
2023-05-04T10:33:30.906Z,62.0899
2023-05-04T10:34:31.417Z,62.1378
2023-05-04T10:35:32.418Z,62.6979
2023-05-04T10:36:32.908Z,62.1860
2023-05-04T10:37:33.417Z,61.6067
2023-05-04T10:38:33.940Z,62.2937
2023-05-04T10:39:34.406Z,62.0705
2023-05-04T10:40:34.897Z,61.9652
2023-05-04T10:41:35.415Z,62.8899
2023-05-04T10:42:35.892Z,61.7513
2023-05-04T10:43:36.438Z,60.7231
2023-05-04T10:44:36.980Z,59.9718
2023-05-04T10:45:37.709Z,59.3307
2023-05-04T10:46:38.793Z,59.9861
2023-05-04T10:47:39.298Z,60.1131
2023-05-04T10:48:39.740Z,60.7304
2023-05-04T10:49:40.229Z,60.0290
2023-05-04T10:50:40.769Z,60.0813
2023-05-04T10:51:49.695Z,60.6004
2023-05-04T10:52:41.473Z,60.2304
2023-05-04T10:53:41.942Z,59.9614
2023-05-04T10:54:42.471Z,59.6923
2023-05-04T10:55:42.927Z,59.7382
2023-05-04T10:56:43.404Z,59.6823
2023-05-04T10:57:43.934Z,59.4354
2023-05-04T10:58:44.417Z,59.9625
2023-05-04T10:59:44.898Z,59.8486
2023-05-04T11:00:45.464Z,59.7742
2023-05-04T11:01:46.102Z,59.3677
2023-05-04T11:02:46.650Z,59.6027
2023-05-04T11:03:47.208Z,59.7730
2023-05-04T11:04:47.621Z,59.7713
2023-05-04T11:05:48.128Z,59.4669
2023-05-04T11:06:48.576Z,59.4412
2023-05-04T11:07:49.018Z,59.2084
2023-05-04T11:08:49.457Z,58.9724
2023-05-04T11:09:49.897Z,58.9808
2023-05-04T11:10:50.353Z,58.3372
2023-05-04T11:11:50.906Z,57.4351
2023-05-04T11:12:52.003Z,57.4866
2023-05-04T11:13:52.501Z,57.3468
2023-05-04T11:14:52.911Z,57.1069
2023-05-04T11:15:53.417Z,56.7395
2023-05-04T11:16:54.029Z,56.8039
2023-05-04T11:17:54.415Z,56.5731
2023-05-04T11:18:54.870Z,55.0954
2023-05-04T11:19:55.317Z,52.9362
2023-05-04T11:20:55.768Z,51.7364
2023-05-04T11:21:56.226Z,49.8810
2023-05-04T11:22:57.223Z,49.9110
2023-05-04T11:23:57.714Z,51.0581
2023-05-04T11:24:58.167Z,50.7449
2023-05-04T11:25:58.565Z,49.6117
2023-05-04T11:26:59.457Z,50.3022
2023-05-04T11:27:59.920Z,49.0149
2023-05-04T11:29:00.329Z,47.5397
2023-05-04T11:30:00.737Z,46.3161
2023-05-04T11:31:02.655Z,45.4453
2023-05-04T11:32:01.605Z,47.0547
2023-05-04T11:33:02.090Z,47.8854
2023-05-04T11:34:02.531Z,46.7565
2023-05-04T11:35:03.815Z,45.6947
2023-05-04T11:36:04.686Z,46.3823
2023-05-04T11:37:05.062Z,46.4117
2023-05-04T11:38:05.407Z,43.2206
2023-05-04T11:39:05.752Z,43.6925
2023-05-04T11:40:06.112Z,44.5257
2023-05-04T11:41:06.417Z,43.7660
2023-05-04T11:42:06.690Z,45.8785
2023-05-04T11:43:06.951Z,44.5383
2023-05-04T11:44:07.242Z,44.4730
2023-05-04T11:45:08.084Z,45.3230
2023-05-04T11:46:08.702Z,44.7172
2023-05-04T11:47:09.013Z,45.6044
2023-05-04T11:48:09.517Z,43.9758
2023-05-04T11:49:09.968Z,42.6114
2023-05-04T11:50:10.349Z,42.9466
2023-05-04T11:51:10.833Z,43.6181
2023-05-04T11:52:11.309Z,43.0267
2023-05-04T11:53:11.702Z,41.9651
2023-05-04T11:54:12.104Z,42.5502
2023-05-04T11:55:12.430Z,43.1771
2023-05-04T11:56:12.951Z,43.2364
2023-05-04T11:57:13.410Z,43.6551
2023-05-04T11:58:13.840Z,43.4965
2023-05-04T11:59:14.127Z,42.0264
2023-05-04T12:00:14.565Z,41.4868
2023-05-04T12:01:14.957Z,39.4189
2023-05-04T12:02:15.418Z,39.0180
2023-05-04T12:03:16.086Z,37.3983
2023-05-04T12:04:16.552Z,36.2109
2023-05-04T12:05:17.013Z,37.5677
2023-05-04T12:06:17.266Z,40.9141
2023-05-04T12:07:17.609Z,41.8590
2023-05-04T12:08:17.914Z,44.3528
2023-05-04T12:09:18.299Z,45.4218
2023-05-04T12:10:18.637Z,45.4031
2023-05-04T12:11:19.997Z,42.3667
2023-05-04T12:12:20.276Z,39.4128
2023-05-04T12:13:20.730Z,38.1314
2023-05-04T12:14:21.047Z,39.8139
2023-05-04T12:15:21.388Z,39.9281
2023-05-04T12:16:21.778Z,41.5492
2023-05-04T12:17:22.234Z,40.8798
2023-05-04T12:18:22.528Z,40.7163
2023-05-04T12:19:22.818Z,40.2998
2023-05-04T12:20:23.141Z,40.0988